Jacksonville, FL (32228)

4:31 PM EST on January 19, 2017 (GMT -0500)
Atlantic Beach/Mayport | | Change Station

Elev 13 ft 30.37 °N, 81.41 °W | Updated 3 seconds ago

Mostly Cloudy
Mostly Cloudy
70.4 °F
Feels Like 70.4 °F
N
0.0
Wind Variable Wind from South
Gusts 3.0 mph

Today
High -- | Low -- °F
--% Chance of Precip.
Yesterday
High -- | Low -- °F
Precip. -- in
Pressure 29.98 in
Visibility 10.0 miles
Clouds Few 1500 ft
Mostly Cloudy 25000 ft
Dew Point 65 °F
Humidity 84%
Rainfall 0.00 in
Snow Depth Not available.
7:22 AM 5:51 PM
Waning Gibbous, 50% visible
METAR KNRB 192052Z 12007KT 10SM FEW015 BKN250 21/16 A2998 RMK AO2 SLP152 T02110161 56014
Pressure 29.98 in
Visibility 10.0 miles
Clouds Few 1500 ft
Mostly Cloudy 25000 ft
Dew Point 65 °F
Humidity 84%
Rainfall 0.00 in
Snow Depth Not available.
7:22 AM 5:51 PM
Waning Gibbous, 50% visible
METAR KNRB 192052Z 12007KT 10SM FEW015 BKN250 21/16 A2998 RMK AO2 SLP152 T02110161 56014

Get Your Daily Forecast Email!

Thanks for signing up!

Be on the lookout for a verification email in your inbox.

You'll start receiving the daily forecast at 8 AM.

×

10-Day Weather Forecast

Almanac

Astronomy

Jan. 19, 2017 Rise Set
Actual Time
Civil Twilight
Nautical Twilight
Astronomical Twilight
Moon
Length of Visible Light
Length of Day
Tomorrow will be .
, % of the Moon is Illuminated

Today's Extremes

State Highs State Lows

Community

WunderPhotos

Upload Photos

1,962,540 photos uploaded!

WunderBlog® & News

Nearby

Air Quality

  Air Quality AQ Index Pollutant
Not available.

Snow Depth

Station Depth Elevation

Earthquake Activity

City Distance Mag. Time & Date
Minimum magnitude displayed is 2.5.

Coastal Water Temperatures

Place Temperature

Stations

Nearby Weather Stations

Station Location Temp. Windchill Dew Point Humidity Wind Precip. Elev Updated Type
                   

Watches & Warnings

There are currently no watches in effect.